createdAt,value
2024-03-02T00:01:24.033Z,68.90
2024-03-02T00:05:09.280Z,66.30
2024-03-02T00:08:46.443Z,64.20
2024-03-02T00:12:13.894Z,65.00
2024-03-02T00:16:01.090Z,66.90
2024-03-02T00:19:07.241Z,66.90
2024-03-02T00:22:51.829Z,64.20
2024-03-02T00:26:36.952Z,62.20
2024-03-02T00:30:10.919Z,67.50
2024-03-02T00:33:52.945Z,63.70
2024-03-02T00:37:11.435Z,65.10
2024-03-02T00:40:52.192Z,67.00
2024-03-02T00:44:30.942Z,67.20
2024-03-02T00:48:21.481Z,65.10
2024-03-02T00:52:10.968Z,62.30
2024-03-02T00:55:50.836Z,63.40
2024-03-02T00:59:33.030Z,66.80
2024-03-02T01:03:14.703Z,65.30
2024-03-02T01:06:57.238Z,63.90
2024-03-02T01:10:17.738Z,64.70
2024-03-02T01:13:56.539Z,65.80
2024-03-02T01:17:37.535Z,64.30
2024-03-02T01:21:27.068Z,63.20
2024-03-02T01:24:45.921Z,64.40
2024-03-02T01:28:21.210Z,64.50
2024-03-02T01:31:48.392Z,63.90
2024-03-02T01:34:48.807Z,63.60
2024-03-02T01:38:17.008Z,61.70
2024-03-02T01:41:34.078Z,62.10
2024-03-02T01:44:51.824Z,62.30
2024-03-02T01:48:04.222Z,63.80
2024-03-02T01:51:35.799Z,62.00
2024-03-02T01:55:18.630Z,59.90
2024-03-02T01:58:49.455Z,59.40
2024-03-02T02:02:17.115Z,61.60
2024-03-02T02:05:49.144Z,57.70
2024-03-02T02:09:06.976Z,56.40
2024-03-02T02:12:35.148Z,57.30
2024-03-02T02:16:17.292Z,58.80
2024-03-02T02:19:43.780Z,56.50
2024-03-02T02:23:13.600Z,55.10
2024-03-02T02:26:28.402Z,54.40
2024-03-02T02:30:08.941Z,57.30
2024-03-02T02:33:36.253Z,56.30
2024-03-02T02:37:11.191Z,53.50
2024-03-02T02:40:39.561Z,52.50
2024-03-02T02:44:12.746Z,53.00
2024-03-02T02:47:51.978Z,53.60
2024-03-02T02:51:19.991Z,52.40
2024-03-02T02:54:38.021Z,52.00
2024-03-02T02:58:01.523Z,54.00
2024-03-02T03:01:41.396Z,53.70
2024-03-02T03:05:02.727Z,48.90
2024-03-02T03:08:28.523Z,50.70
2024-03-02T03:11:53.793Z,53.30
2024-03-02T03:15:13.291Z,51.50
2024-03-02T03:18:38.122Z,50.50
2024-03-02T03:22:11.420Z,49.50
2024-03-02T03:25:28.792Z,51.10
2024-03-02T03:28:48.189Z,49.00
2024-03-02T03:32:27.477Z,49.10
2024-03-02T03:36:02.350Z,48.30
2024-03-02T03:39:15.531Z,51.10
2024-03-02T03:42:42.261Z,48.60
2024-03-02T03:46:16.097Z,47.20
2024-03-02T03:50:06.032Z,48.40
2024-03-02T03:53:26.979Z,51.70
2024-03-02T03:57:16.350Z,50.80
2024-03-02T04:00:28.668Z,47.90
2024-03-02T04:04:03.284Z,48.10
2024-03-02T04:07:45.197Z,52.00
2024-03-02T04:11:25.476Z,49.60
2024-03-02T04:14:47.766Z,48.40
2024-03-02T04:18:08.295Z,44.40
2024-03-02T04:21:43.250Z,44.40
2024-03-02T04:25:25.118Z,45.00
2024-03-02T04:29:06.489Z,44.10
2024-03-02T04:32:32.718Z,43.40
2024-03-02T04:35:38.965Z,44.90
2024-03-02T04:39:03.554Z,49.10
2024-03-02T04:42:25.997Z,44.00
2024-03-02T04:46:00.420Z,42.10
2024-03-02T04:49:30.066Z,42.80
2024-03-02T04:52:56.388Z,43.70
2024-03-02T04:56:20.155Z,43.50
2024-03-02T04:59:43.056Z,41.20
2024-03-02T05:03:03.661Z,42.50
2024-03-02T05:05:45.786Z,41.50
2024-03-02T05:09:10.914Z,43.80
2024-03-02T05:12:11.298Z,41.40
2024-03-02T05:14:43.665Z,41.50
2024-03-02T05:18:00.862Z,41.60
2024-03-02T05:20:45.116Z,44.10
2024-03-02T05:23:53.888Z,42.80
2024-03-02T05:27:02.807Z,41.50
2024-03-02T05:30:47.464Z,41.40
2024-03-02T05:34:18.043Z,43.30
2024-03-02T05:37:50.831Z,43.70
2024-03-02T05:41:19.536Z,42.70
2024-03-02T05:44:17.509Z,40.90
2024-03-02T05:47:40.809Z,45.10
2024-03-02T05:51:02.358Z,44.60
2024-03-02T05:54:25.765Z,41.80
2024-03-02T05:58:02.909Z,40.60
2024-03-02T06:01:31.027Z,40.80
2024-03-02T06:04:48.774Z,42.40
2024-03-02T06:07:59.525Z,40.20
2024-03-02T06:11:00.615Z,41.20
2024-03-02T06:14:09.166Z,41.20
2024-03-02T06:17:51.383Z,40.90
2024-03-02T06:21:40.843Z,39.10
2024-03-02T06:25:22.389Z,38.80
2024-03-02T06:28:49.879Z,40.40
2024-03-02T06:32:28.168Z,40.40
2024-03-02T06:36:03.136Z,39.20
2024-03-02T06:39:35.293Z,39.20
2024-03-02T06:43:08.870Z,40.80
2024-03-02T06:46:28.073Z,40.90
2024-03-02T06:49:55.027Z,38.10
2024-03-02T06:53:24.053Z,39.10
2024-03-02T06:56:40.316Z,41.30
2024-03-02T07:00:28.683Z,40.80
2024-03-02T07:03:54.688Z,40.40
2024-03-02T07:11:28.473Z,32.20
2024-03-02T07:14:17.061Z,40.80
2024-03-02T07:17:24.953Z,39.80
2024-03-02T07:20:53.451Z,39.00
2024-03-02T07:24:19.816Z,40.50
2024-03-02T07:27:50.075Z,40.20
2024-03-02T07:31:32.455Z,41.00
2024-03-02T07:34:44.355Z,39.80
2024-03-02T07:38:15.988Z,40.50
2024-03-02T07:41:45.889Z,40.40
2024-03-02T07:44:46.266Z,40.30
2024-03-02T07:48:08.533Z,39.00
2024-03-02T07:51:58.123Z,39.80
2024-03-02T07:54:56.992Z,40.90
2024-03-02T07:57:34.044Z,41.10
2024-03-02T08:00:23.082Z,39.00
2024-03-02T08:03:44.227Z,38.60
2024-03-02T08:06:34.902Z,39.60
2024-03-02T08:09:42.080Z,40.60
2024-03-02T08:13:01.078Z,38.10
2024-03-02T08:15:53.872Z,39.10
2024-03-02T08:18:42.453Z,39.90
2024-03-02T08:21:35.850Z,39.90
2024-03-02T08:24:44.893Z,39.00
2024-03-02T08:28:02.547Z,37.90
2024-03-02T08:31:49.683Z,37.80
2024-03-02T08:34:21.102Z,39.00
2024-03-02T08:37:51.995Z,39.30
2024-03-02T08:41:20.320Z,38.10
2024-03-02T08:44:58.233Z,38.10
2024-03-02T08:48:26.388Z,38.80
2024-03-02T08:52:15.039Z,38.10
2024-03-02T08:55:18.499Z,37.40
2024-03-02T08:58:11.323Z,38.30
2024-03-02T09:00:53.514Z,39.20
2024-03-02T09:04:35.305Z,39.50
2024-03-02T09:07:25.112Z,38.60
2024-03-02T09:10:40.197Z,38.40
2024-03-02T09:13:34.609Z,39.30
2024-03-02T09:16:54.329Z,39.20
2024-03-02T09:19:53.495Z,36.90
2024-03-02T09:22:27.100Z,37.90
2024-03-02T09:25:05.749Z,38.60
2024-03-02T09:28:00.892Z,38.70
2024-03-02T09:31:21.716Z,39.50
2024-03-02T09:34:44.721Z,37.40
2024-03-02T09:37:54.022Z,38.60
2024-03-02T09:40:47.874Z,38.60
2024-03-02T09:44:01.695Z,37.50
2024-03-02T09:46:40.605Z,38.50
2024-03-02T09:49:24.733Z,37.80
2024-03-02T09:52:54.685Z,37.90
2024-03-02T09:56:26.949Z,40.10
2024-03-02T09:59:26.123Z,39.10
2024-03-02T10:02:26.769Z,37.50
2024-03-02T10:05:30.217Z,38.40
2024-03-02T10:09:16.179Z,37.40
2024-03-02T10:11:55.422Z,38.10
2024-03-02T10:15:15.953Z,37.00
2024-03-02T10:17:53.177Z,37.40
2024-03-02T10:20:25.949Z,37.80
2024-03-02T10:23:37.015Z,37.30
2024-03-02T10:26:30.266Z,37.60
2024-03-02T10:29:11.513Z,38.80
2024-03-02T10:31:48.385Z,37.80
2024-03-02T10:34:22.886Z,36.30
2024-03-02T10:37:06.510Z,35.70
2024-03-02T10:39:44.061Z,36.20
2024-03-02T10:42:44.370Z,37.00
2024-03-02T10:45:53.599Z,36.80
2024-03-02T10:54:49.726Z,29.80
2024-03-02T10:59:10.810Z,35.50
2024-03-02T11:03:26.782Z,35.10
2024-03-02T11:07:51.241Z,34.20
2024-03-02T11:12:20.058Z,35.50
2024-03-02T11:16:49.543Z,34.10
2024-03-02T11:20:59.232Z,33.50
2024-03-02T11:25:29.514Z,33.00
2024-03-02T11:30:18.593Z,32.70
2024-03-02T11:34:44.461Z,32.20
2024-03-02T11:39:00.515Z,33.30
2024-03-02T11:43:22.162Z,33.70
2024-03-02T11:48:04.063Z,33.90
2024-03-02T11:52:34.203Z,33.80
2024-03-02T11:57:05.353Z,33.40
2024-03-02T12:01:37.381Z,34.20
2024-03-02T12:05:57.724Z,35.30
2024-03-02T12:10:12.083Z,34.50
2024-03-02T12:14:41.800Z,34.30
2024-03-02T12:19:15.060Z,33.90
2024-03-02T12:23:26.954Z,32.50
2024-03-02T12:27:54.712Z,32.20
2024-03-02T12:32:25.460Z,30.10
2024-03-02T12:36:58.072Z,32.10
2024-03-02T12:41:11.168Z,31.10
2024-03-02T12:45:17.860Z,32.30
2024-03-02T12:49:48.424Z,32.90
2024-03-02T12:54:18.622Z,31.00
2024-03-02T12:58:49.784Z,30.80
2024-03-02T13:03:19.473Z,29.90
2024-03-02T13:07:49.176Z,30.80
2024-03-02T13:12:21.272Z,29.90
2024-03-02T13:16:44.422Z,31.80
2024-03-02T13:21:06.165Z,32.50
2024-03-02T13:25:40.800Z,32.60
2024-03-02T13:30:14.896Z,31.50
2024-03-02T13:39:19.750Z,33.60
2024-03-02T13:43:51.070Z,33.40
2024-03-02T13:48:30.332Z,32.70
2024-03-02T13:52:55.166Z,31.30
2024-03-02T13:56:44.780Z,33.30
2024-03-02T13:59:24.903Z,33.30
2024-03-02T14:01:56.932Z,32.60
2024-03-02T14:04:50.885Z,33.50
2024-03-02T14:07:24.697Z,33.20
2024-03-02T14:10:24.678Z,32.70
2024-03-02T14:13:09.759Z,33.00
2024-03-02T14:15:42.259Z,33.50
2024-03-02T14:18:14.072Z,34.10
2024-03-02T14:20:45.658Z,33.50
2024-03-02T14:23:18.838Z,33.80
2024-03-02T14:25:47.480Z,35.20
2024-03-02T14:28:43.000Z,34.80
2024-03-02T14:31:08.017Z,35.20
2024-03-02T14:33:47.537Z,34.30
2024-03-02T14:36:19.621Z,35.90
2024-03-02T14:39:01.267Z,36.00
2024-03-02T14:41:42.482Z,36.90
2024-03-02T14:44:35.482Z,36.50
2024-03-02T14:47:12.138Z,36.50
2024-03-02T14:49:45.133Z,35.40
2024-03-02T14:52:25.181Z,34.40
2024-03-02T14:54:58.336Z,36.40
2024-03-02T14:57:42.308Z,34.90
2024-03-02T15:00:21.842Z,35.90
2024-03-02T15:03:19.977Z,36.10
2024-03-02T15:05:55.066Z,34.90
2024-03-02T15:08:53.855Z,35.20
2024-03-02T15:12:13.748Z,33.50
2024-03-02T15:14:51.532Z,33.50
2024-03-02T15:17:53.315Z,33.70
2024-03-02T15:20:38.850Z,35.70
2024-03-02T15:23:33.070Z,37.40
2024-03-02T15:26:29.895Z,34.70
2024-03-02T15:29:30.094Z,35.10
2024-03-02T15:32:45.935Z,34.70
2024-03-02T15:35:40.324Z,34.30
2024-03-02T15:39:08.877Z,35.80
2024-03-02T15:42:43.790Z,39.50
2024-03-02T15:46:06.899Z,42.60
2024-03-02T15:49:41.548Z,42.50
2024-03-02T15:52:37.112Z,47.20
2024-03-02T15:55:18.302Z,45.90
2024-03-02T15:58:52.842Z,45.00
2024-03-02T16:02:30.960Z,48.20
2024-03-02T16:05:21.702Z,48.00
2024-03-02T16:08:36.269Z,43.00
2024-03-02T16:11:24.037Z,43.50
2024-03-02T16:14:17.581Z,40.80
2024-03-02T16:18:04.860Z,41.90
2024-03-02T16:21:18.056Z,42.00
2024-03-02T16:24:21.838Z,46.60
2024-03-02T16:27:16.443Z,40.40
2024-03-02T16:30:21.260Z,43.30
2024-03-02T16:33:25.288Z,48.30
2024-03-02T16:36:28.350Z,52.90
2024-03-02T16:39:05.275Z,56.70
2024-03-02T16:42:17.944Z,55.90
2024-03-02T16:45:30.028Z,78.30
2024-03-02T16:48:17.095Z,80.60
2024-03-02T16:51:56.719Z,80.90
2024-03-02T16:55:08.851Z,71.00
2024-03-02T16:58:06.937Z,69.50
2024-03-02T17:01:08.866Z,74.40
2024-03-02T17:04:41.366Z,71.50
2024-03-02T17:08:02.639Z,66.60
2024-03-02T17:11:11.325Z,63.70
2024-03-02T17:14:48.309Z,58.90
2024-03-02T17:18:28.278Z,58.20
2024-03-02T17:22:01.917Z,48.50
2024-03-02T17:25:34.144Z,51.10
2024-03-02T17:28:51.000Z,54.70
2024-03-02T17:32:39.942Z,59.70
2024-03-02T17:36:00.302Z,58.30
2024-03-02T17:39:18.608Z,61.80
2024-03-02T17:43:01.046Z,63.80
2024-03-02T17:46:08.478Z,62.00
2024-03-02T17:48:56.092Z,56.30
2024-03-02T17:51:54.953Z,55.30
2024-03-02T17:54:49.384Z,56.40
2024-03-02T17:57:51.647Z,55.60
2024-03-02T18:00:42.732Z,51.50
2024-03-02T18:03:17.430Z,48.80
2024-03-02T18:05:52.680Z,49.30
2024-03-02T18:08:23.406Z,50.30
2024-03-02T18:11:09.003Z,49.40
2024-03-02T18:14:30.000Z,48.80
2024-03-02T18:18:08.669Z,48.30
2024-03-02T18:21:50.342Z,50.60
2024-03-02T18:25:40.949Z,51.20
2024-03-02T18:29:23.718Z,47.60
2024-03-02T18:32:40.719Z,45.60
2024-03-02T18:36:01.218Z,47.10
2024-03-02T18:39:29.180Z,44.50
2024-03-02T18:43:10.022Z,44.70
2024-03-02T18:46:50.218Z,44.60
2024-03-02T18:50:09.556Z,44.10
2024-03-02T18:53:39.077Z,42.90
2024-03-02T18:57:20.276Z,40.90
2024-03-02T19:00:38.724Z,43.50
2024-03-02T19:03:21.554Z,42.50
2024-03-02T19:06:39.453Z,43.60
2024-03-02T19:10:15.067Z,42.70
2024-03-02T19:13:47.650Z,44.40
2024-03-02T19:16:38.708Z,44.30
2024-03-02T19:19:25.090Z,44.00
2024-03-02T19:22:19.825Z,44.80
2024-03-02T19:25:16.067Z,44.70
2024-03-02T19:28:19.506Z,45.10
2024-03-02T19:31:28.143Z,45.70
2024-03-02T19:35:16.409Z,43.60
2024-03-02T19:38:14.182Z,46.20
2024-03-02T19:41:24.082Z,48.50
2024-03-02T19:44:42.164Z,47.30
2024-03-02T19:47:37.564Z,46.50
2024-03-02T19:50:56.419Z,42.80
2024-03-02T19:53:54.065Z,45.60
2024-03-02T19:57:34.331Z,47.20
2024-03-02T20:00:29.129Z,44.50
2024-03-02T20:04:01.320Z,45.40
2024-03-02T20:06:40.184Z,49.50
2024-03-02T20:09:42.378Z,47.70
2024-03-02T20:13:10.791Z,46.20
2024-03-02T20:16:05.964Z,47.20
2024-03-02T20:19:27.069Z,49.90
2024-03-02T20:22:46.212Z,55.40
2024-03-02T20:26:12.932Z,52.40
2024-03-02T20:29:52.654Z,50.60
2024-03-02T20:32:54.938Z,51.80
2024-03-02T20:36:04.328Z,51.80
2024-03-02T20:39:19.014Z,51.70
2024-03-02T20:43:02.124Z,50.80
2024-03-02T20:46:10.054Z,54.20
2024-03-02T20:49:50.874Z,60.20
2024-03-02T20:53:32.100Z,57.90
2024-03-02T20:57:22.971Z,59.60
2024-03-02T21:00:49.694Z,57.30
2024-03-02T21:04:31.988Z,56.40
2024-03-02T21:07:26.034Z,54.80
2024-03-02T21:10:53.385Z,55.00
2024-03-02T21:14:40.664Z,54.40
2024-03-02T21:17:28.347Z,52.00
2024-03-02T21:20:55.654Z,52.30
2024-03-02T21:24:31.251Z,54.50
2024-03-02T21:28:15.831Z,54.40
2024-03-02T21:31:56.413Z,55.80
2024-03-02T21:35:20.275Z,57.30
2024-03-02T21:38:31.109Z,58.20
2024-03-02T21:42:03.099Z,58.20
2024-03-02T21:45:35.766Z,58.40
2024-03-02T21:49:26.391Z,58.90
2024-03-02T21:52:54.861Z,55.20
2024-03-02T21:56:03.523Z,55.50
2024-03-02T21:59:49.506Z,57.10
2024-03-02T22:04:43.393Z,56.80
2024-03-02T22:07:49.525Z,53.70
2024-03-02T22:11:24.836Z,58.20
2024-03-02T22:15:19.867Z,55.60
2024-03-02T22:19:10.845Z,57.20
2024-03-02T22:22:55.231Z,57.30
2024-03-02T22:26:46.042Z,53.40
2024-03-02T22:30:28.384Z,54.10
2024-03-02T22:34:05.584Z,53.40
2024-03-02T22:38:45.237Z,53.30
2024-03-02T22:42:26.821Z,53.00
2024-03-02T22:46:16.758Z,54.50
2024-03-02T22:50:06.492Z,52.50
2024-03-02T22:53:39.257Z,51.30
2024-03-02T22:57:29.666Z,49.80
2024-03-02T23:01:10.149Z,50.60
2024-03-02T23:04:34.873Z,49.80
2024-03-02T23:08:09.176Z,48.90
2024-03-02T23:11:56.412Z,54.30
2024-03-02T23:15:39.535Z,50.90
2024-03-02T23:19:29.453Z,49.60
2024-03-02T23:22:44.610Z,49.50
2024-03-02T23:26:19.148Z,48.80
2024-03-02T23:30:08.624Z,48.40
2024-03-02T23:33:50.565Z,47.30
2024-03-02T23:37:30.154Z,49.50
2024-03-02T23:41:04.180Z,49.20
2024-03-02T23:44:39.792Z,47.90
2024-03-02T23:47:52.659Z,48.30
2024-03-02T23:51:45.856Z,50.30
2024-03-02T23:55:00.836Z,51.00
2024-03-02T23:58:11.542Z,50.00
